Flight Track Log - Related Links

Times and Time Zones

All times are in EDT time to prevent confusion due to time zone crossing. See the AAY842 flight status page for this flight to view local times or setup timezone preferences in your user account.

Time Position Orientation Groundspeed Altitude Reporting Facility
EDT Latitude Longitude Course Direction KTS MPH feet Rate Location/Type
Sun 07:10:32 AM 27.9000 -82.6833 180° South 154 177 700  Level Tampa TRACON
Sun 07:11:38 AM 27.8500 -82.6833 180° South 192 221 2,900 2,095 Climbing Tampa TRACON
Sun 07:12:38 AM 27.8167 -82.7167 221° Southwest 229 264 5,100 2,087 Climbing Tampa TRACON
Sun 07:14:19 AM 27.9119 -82.7639 336° Northwest 288 331 8,500 2,087 Climbing Miami Center
Sun 07:15:19 AM 27.9978 -82.7461 10° North 308 354 10,700 1,636 Climbing Miami Center
Sun 07:16:20 AM 28.0994 -82.7558 355° North 355 409 11,800 1,770 Climbing Miami Center
Sun 07:17:21 AM 28.2119 -82.7525 North 392 451 14,300 2,609 Climbing Miami Center
Sun 07:18:15 AM 28.3336 -82.7464 North 390 449 16,800 2,263 Climbing Jacksonville Center
Sun 07:19:15 AM 28.4544 -82.7461 360° North 407 468 18,600 1,900 Climbing Jacksonville Center
Sun 07:20:15 AM 28.5756 -82.7436 North 427 491 20,600 1,750 Climbing Jacksonville Center
Sun 07:21:15 AM 28.6903 -82.7386 North 445 512 22,100 1,587 Climbing Jacksonville Center
Sun 07:22:16 AM 28.8178 -82.7361 North 451 519 23,800 1,650 Climbing Jacksonville Center
Sun 07:23:15 AM 28.9469 -82.7289 North 456 525 25,400 1,600 Climbing Jacksonville Center
Sun 07:24:16 AM 29.0764 -82.7264 North 456 525 27,000 800 Climbing Jacksonville Center
Sun 07:25:15 AM 29.2017 -82.7236 North 456 525 27,000 504 Level Jacksonville Center
Sun 07:26:15 AM 29.3331 -82.7211 North 456 525 28,000 500 Climbing Jacksonville Center
Sun 07:27:15 AM 29.4606 -82.7161 North 456 525 28,000 550 Level Jacksonville Center
Sun 07:28:15 AM 29.6003 -82.7158 360° North 457 526 29,100 1,091 Climbing Jacksonville Center
Sun 07:29:16 AM 29.7319 -82.7108 North 464 534 30,200 950 Climbing Jacksonville Center
Sun 07:30:15 AM 29.8592 -82.7106 360° North 458 527 31,000 403 Climbing Jacksonville Center
Sun 07:31:15 AM 29.9719 -82.7008 North 458 527 31,000  Level Jacksonville Center
Sun 07:32:15 AM 30.1036 -82.6981 North 458 527 31,000  Level Jacksonville Center
Sun 07:33:15 AM 30.2308 -82.6931 North 458 527 31,000  Level Jacksonville Center
Sun 07:34:15 AM 30.3542 -82.6903 North 452 520 31,000  Level Jacksonville Center
Sun 07:35:15 AM 30.4836 -82.6853 North 452 520 31,000  Level Jacksonville Center
Sun 07:36:15 AM 30.5961 -82.6247 25° Northeast 444 511 31,000  Level Jacksonville Center
Sun 07:37:15 AM 30.7086 -82.5519 29° Northeast 438 504 31,000  Level Jacksonville Center
Sun 07:38:15 AM 30.8169 -82.4789 30° Northeast 443 510 31,000  Level Jacksonville Center
Sun 07:39:15 AM 30.9294 -82.4058 29° Northeast 449 517 31,000  Level Jacksonville Center
Sun 07:40:15 AM 31.0400 -82.3275 31° Northeast 455 524 31,000  Level Jacksonville Center
Sun 07:41:15 AM 31.1503 -82.2542 30° Northeast 455 524 31,000  Level Jacksonville Center
Sun 07:42:15 AM 31.2606 -82.1731 32° Northeast 461 531 31,000  Level Jacksonville Center
Sun 07:43:16 AM 31.3728 -82.0994 29° Northeast 461 531 31,000  Level Jacksonville Center
Sun 07:44:15 AM 31.4933 -82.0131 31° Northeast 461 531 31,000  Level Jacksonville Center
Sun 07:45:16 AM 31.5950 -81.9461 29° Northeast 461 531 31,000  Level Jacksonville Center
Sun 07:46:15 AM 31.7156 -81.8569 32° Northeast 461 531 31,000  Level Jacksonville Center
Sun 07:47:15 AM 31.8275 -81.7825 29° Northeast 461 531 31,000  Level Jacksonville Center
Sun 07:48:15 AM 31.9250 -81.7103 32° Northeast 464 534 31,000  Level Jacksonville Center
Sun 07:49:15 AM 32.0517 -81.6253 30° Northeast 469 540 31,000  Level Jacksonville Center
Sun 07:50:15 AM 32.1614 -81.5453 32° Northeast 469 540 31,000  Level Jacksonville Center
Sun 07:51:15 AM 32.2672 -81.4750 29° Northeast 464 534 31,000  Level Jacksonville Center
Sun 07:52:15 AM 32.3914 -81.3844 32° Northeast 472 543 31,000  Level Jacksonville Center
Sun 07:53:15 AM 32.5031 -81.3086 30° Northeast 467 537 31,000  Level Jacksonville Center
Sun 07:54:15 AM 32.5983 -81.2356 33° Northeast 462 532 31,000 150 Level Jacksonville Center
Sun 07:55:15 AM 32.7119 -81.1594 29° Northeast 457 526 31,300 150 Climbing Jacksonville Center
Sun 07:56:15 AM 32.8194 -81.0758 33° Northeast 457 526 31,300 300 Level Jacksonville Center
Sun 07:57:15 AM 32.9311 -80.9967 31° Northeast 457 526 31,900 700 Climbing Jacksonville Center
Sun 07:58:15 AM 33.0403 -80.9128 33° Northeast 467 537 32,700 545 Climbing Jacksonville Center
Sun 07:59:16 AM 33.1539 -80.8381 29° Northeast 467 537 33,000 150 Climbing Jacksonville Center
Sun 08:00:15 AM 33.2672 -80.7536 32° Northeast 467 537 33,000  Level Jacksonville Center
Sun 08:01:15 AM 33.3808 -80.6739 30° Northeast 467 537 33,000  Level Jacksonville Center
Sun 08:02:15 AM 33.4919 -80.5889 33° Northeast 467 537 33,000  Level Jacksonville Center
Sun 08:03:16 AM 33.6053 -80.5086 31° Northeast 467 537 33,000  Level Jacksonville Center
Sun 08:04:15 AM 33.7161 -80.4206 33° Northeast 467 537 33,000  Level Jacksonville Center
Sun 08:05:16 AM 33.8314 -80.3425 29° Northeast 472 543 33,000  Level Jacksonville Center
Sun 08:06:15 AM 33.9403 -80.2567 33° Northeast 467 537 33,000  Level Jacksonville Center
Sun 08:07:16 AM 34.0533 -80.1756 31° Northeast 467 537 33,000  Level Jacksonville Center
Sun 08:08:15 AM 34.1661 -80.0892 32° Northeast 467 537 33,000  Level Jacksonville Center
Sun 08:09:16 AM 34.2792 -80.0053 32° Northeast 467 537 33,000  Level Jacksonville Center
Sun 08:10:15 AM 34.3919 -79.9233 31° Northeast 467 537 33,000  Level Jacksonville Center
Sun 08:11:15 AM 34.5025 -79.8339 34° Northeast 467 537 33,000  Level Jacksonville Center
Sun 08:12:38 AM 34.6619 -79.7153 31° Northeast 476 548 33,000  Level Washington Center
Sun 08:13:38 AM 34.7736 -79.6250 34° Northeast 476 548 33,000  Level Washington Center
Sun 08:14:39 AM 34.8911 -79.5422 30° Northeast 481 554 33,000  Level Washington Center
Sun 08:15:37 AM 35.0025 -79.4536 33° Northeast 481 554 33,000  Level Washington Center
Sun 08:16:38 AM 35.1178 -79.3728 30° Northeast 481 554 33,000  Level Washington Center
Sun 08:17:38 AM 35.2311 -79.2842 33° Northeast 481 554 33,000  Level Washington Center
Sun 08:18:37 AM 35.3511 -79.2464 14° North 481 554 33,000  Level Washington Center
Sun 08:19:37 AM 35.4756 -79.2086 14° North 463 533 33,000  Level Washington Center
Sun 08:20:39 AM 35.6122 -79.1714 12° North 458 527 33,000  Level Washington Center
Sun 08:21:36 AM 35.7306 -79.1178 20° North 453 521 33,000  Level Washington Center
Sun 08:22:38 AM 35.8514 -79.0592 21° North 453 521 33,000  Level Washington Center
Sun 08:23:38 AM 35.9717 -79.0081 19° North 453 521 33,000  Level Washington Center
Sun 08:24:39 AM 36.0903 -78.9489 22° Northeast 453 521 33,000  Level Washington Center
Sun 08:25:36 AM 36.2086 -78.8972 19° North 453 521 33,000  Level Washington Center
Sun 08:26:37 AM 36.3267 -78.8508 18° North 453 521 33,000  Level Washington Center
Sun 08:27:38 AM 36.4450 -78.7989 19° North 448 516 33,000  Level Washington Center
Sun 08:28:37 AM 36.5650 -78.7547 16° North 448 516 33,000  Level Washington Center
Sun 08:29:37 AM 36.6600 -78.7144 19° North 448 516 33,000  Level Washington Center
Sun 08:30:38 AM 36.7886 -78.6575 20° North 448 516 33,000  Level Washington Center
Sun 08:31:39 AM 36.9069 -78.6050 20° North 448 516 33,000  Level Washington Center
Sun 08:32:36 AM 37.0269 -78.5603 17° North 448 516 33,000  Level Washington Center
Sun 08:33:38 AM 37.1469 -78.5075 19° North 448 516 33,000  Level Washington Center
Sun 08:34:37 AM 37.2669 -78.4625 17° North 448 516 33,000  Level Washington Center
Sun 08:35:38 AM 37.3872 -78.4122 18° North 448 516 33,000  Level Washington Center
Sun 08:36:38 AM 37.5094 -78.3617 18° North 448 516 33,000  Level Washington Center
Sun 08:37:39 AM 37.6294 -78.3111 18° North 448 516 33,000  Level Washington Center
Sun 08:38:36 AM 37.7536 -78.2631 17° North 448 516 33,000  Level Washington Center
Sun 08:39:37 AM 37.8756 -78.2119 18° North 448 516 33,000  Level Washington Center
Sun 08:40:38 AM 38.0019 -78.1611 18° North 441 507 33,000  Level Washington Center
Sun 08:41:38 AM 38.1197 -78.1069 20° North 436 502 33,000  Level Washington Center
Sun 08:42:39 AM 38.2397 -78.0531 19° North 442 509 33,000  Level Washington Center
Sun 08:43:37 AM 38.3597 -77.9961 20° North 448 516 33,000  Level Washington Center
Sun 08:44:38 AM 38.4756 -77.9414 20° North 447 514 33,000  Level Washington Center
Sun 08:45:39 AM 38.5933 -77.8867 20° North 447 514 33,000  Level Washington Center
Sun 08:46:37 AM 38.7111 -77.8319 20° North 447 514 33,000  Level Washington Center
Sun 08:47:37 AM 38.8183 -77.7872 18° North 447 514 33,000  Level Washington Center
Sun 08:48:38 AM 38.9531 -77.7164 22° Northeast 461 531 33,000  Level Washington Center
Sun 08:49:38 AM 39.0603 -77.6686 19° North 453 521 33,000  Level Washington Center
Sun 08:51:54 AM 39.3461 -77.5342 20° North 452 520 33,000  Level New York Center
Sun 08:52:55 AM 39.4639 -77.4783 20° North 453 521 33,000  Level New York Center
Sun 08:53:56 AM 39.5775 -77.4244 20° North 423 487 33,000  Level New York Center
Sun 08:54:54 AM 39.6933 -77.3678 21° North 411 473 33,000  Level New York Center
Sun 08:55:56 AM 39.8089 -77.3139 20° North 427 491 33,000  Level New York Center
Sun 08:56:54 AM 39.9247 -77.2597 20° North 427 491 33,000 -756 Level New York Center
Sun 08:57:55 AM 40.0403 -77.2025 21° North 438 504 31,500 -1,400 Descending New York Center
Sun 08:58:54 AM 40.1431 -77.1550 19° North 438 504 30,200 -1,240 Descending New York Center
Sun 08:59:56 AM 40.2589 -77.0950 22° Northeast 438 504 29,000 -595 Descending New York Center
Sun 09:00:55 AM 40.3783 -77.0406 19° North 443 510 29,000  Level New York Center
Sun 09:01:55 AM 40.4919 -76.9825 21° North 443 510 29,000 -248 Level New York Center
Sun 09:02:56 AM 40.6075 -76.9247 21° North 443 510 28,500 -1,150 Descending New York Center
Sun 09:03:55 AM 40.7253 -76.8667 20° North 438 504 26,700 -1,600 Descending New York Center
Sun 09:04:56 AM 40.8386 -76.8108 20° North 438 504 25,300 -1,563 Descending New York Center
Sun 09:05:54 AM 40.9561 -76.7500 21° North 438 504 23,600 -1,311 Descending New York Center
Sun 09:06:55 AM 41.0717 -76.6939 20° North 438 504 22,700 -1,140 Descending New York Center
Sun 09:07:55 AM 41.1847 -76.6378 20° North 438 504 21,300 -857 Descending New York Center
Sun 09:08:54 AM 41.2981 -76.5814 20° North 438 504 21,000 -149 Descending New York Center
Sun 09:09:56 AM 41.4111 -76.5275 20° North 438 504 21,000  Level New York Center
Sun 09:10:56 AM 41.5222 -76.4678 22° Northeast 432 497 21,000  Level New York Center
Sun 09:11:53 AM 41.6333 -76.4106 21° North 432 497 21,000 -347 Level New York Center
Sun 09:12:57 AM 41.7550 -76.3458 22° Northeast 426 490 20,300 -787 Descending New York Center
Sun 09:13:55 AM 41.8639 -76.2908 21° North 421 484 19,400 -923 Descending New York Center
Sun 09:14:54 AM 41.9575 -76.2428 21° North 412 474 18,500 -843 Descending New York Center
Sun 09:15:56 AM 42.0792 -76.1803 21° North 412 474 17,700 -800 Descending New York Center
Sun 09:16:54 AM 42.1833 -76.1328 19° North 412 474 16,900 -850 Descending New York Center
Sun 09:17:56 AM 42.2897 -76.1275 North 389 448 16,000 -960 Descending New York Center
Sun 09:18:34 AM 42.3472 -76.1150 North 385 443 15,300 -1,080 Descending Boston Center
Sun 09:19:36 AM 42.4514 -76.0994 North 384 442 14,200 -1,131 Descending Boston Center
Sun 09:20:36 AM 42.5603 -76.0903 North 380 437 13,000 -1,113 Descending Boston Center
Sun 09:21:40 AM 42.6614 -76.0728 North 370 426 11,900 -1,065 Descending Boston Center
Sun 09:22:40 AM 42.7464 -76.0219 24° Northeast 339 390 10,800 -1,200 Descending Boston Center
Sun 09:23:40 AM 42.8414 -75.9725 21° North 311 358 9,500 -1,645 Descending Boston Center
Sun 09:24:44 AM 42.9158 -75.9392 18° North 268 308 7,400 -2,274 Descending Boston Center
Sun 09:25:44 AM 42.9850 -75.9378 North 259 298 4,800 -1,488 Descending Boston Center
Sun 09:26:45 AM 43.0558 -75.9386 360° North 258 297 4,400 -1,180 Descending Boston Center
Sun 09:27:46 AM 43.1022 -75.9361 North 146 168 2,400 -1,091 Descending Boston Center
Sun 09:29:52 AM 43.1103 -76.0408 276° West 131 151 1,000 -667 Descending Boston Center

Login

Don't have an account? Register now (free) for customized features, flight alerts, and more!